Date,TemperatureHighF,TemperatureAvgF,TemperatureLowF,DewpointHighF,DewpointAvgF,DewpointLowF,HumidityHigh,HumidityAvg,HumidityLow,PressureMaxIn,PressureMinIn,WindSpeedMaxMPH,WindSpeedAvgMPH,GustSpeedMaxMPH,PrecipitationSumIn
2013-1-2,51,42,31,-100,-100,-100,0,0,100,0.00,40.00,6,3,0,0.00
2013-1-3,49,38,28,-100,-100,-100,0,0,100,0.00,40.00,7,3,0,0.00
2013-1-4,54,44,38,-100,-100,-100,0,0,100,0.00,40.00,7,3,0,0.00
2013-1-5,46,44,42,-100,-100,-100,0,0,100,0.00,40.00,7,3,0,0.00
2013-1-6,47,44,41,-100,-100,-100,0,0,100,0.00,40.00,10,6,0,0.00
2013-1-7,52,47,42,-100,-100,-100,0,0,100,0.00,40.00,16,7,0,0.00
2013-1-8,54,47,44,-100,-100,-100,0,0,100,0.00,40.00,14,8,0,0.00
2013-1-9,52,45,38,-100,-100,-100,0,0,100,0.00,40.00,10,7,0,0.00
2013-1-10,40,38,34,-100,-100,-100,0,0,100,0.00,40.00,5,3,0,0.00
2013-1-11,40,34,29,-100,-100,-100,0,0,100,0.00,40.00,6,2,0,0.00
2013-1-12,43,32,27,-100,-100,-100,0,0,100,0.00,40.00,6,2,0,0.00
2013-1-13,40,31,26,-100,-100,-100,0,0,100,0.00,40.00,3,2,0,0.00
2013-1-14,40,35,32,-100,-100,-100,0,0,100,0.00,40.00,3,2,0,0.00
2013-1-15,48,39,33,-100,-100,-100,0,0,100,0.00,40.00,5,2,0,0.00
2013-1-16,46,37,32,-100,-100,-100,0,0,100,0.00,40.00,5,2,0,0.00
2013-1-17,40,35,31,-100,-100,-100,0,0,100,0.00,40.00,2,2,0,0.00
2013-1-18,41,37,34,-100,-100,-100,0,0,100,0.00,40.00,5,3,0,0.00
2013-1-19,39,36,34,-100,-100,-100,0,0,100,0.00,40.00,5,3,0,0.00
2013-1-20,43,37,33,-100,-100,-100,0,0,100,0.00,40.00,5,2,0,0.00
2013-1-21,40,37,33,-100,-100,-100,0,0,100,0.00,40.00,3,2,0,0.00
2013-1-22,42,36,32,-100,-100,-100,0,0,100,0.00,40.00,3,2,0,0.00
2013-1-23,45,43,39,-100,-100,-100,0,0,100,0.00,40.00,7,4,0,0.00
2013-1-24,48,44,41,-100,-100,-100,0,0,100,0.00,40.00,6,3,0,0.00
2013-1-25,54,47,43,-100,-100,-100,0,0,100,0.00,40.00,6,3,0,0.00
2013-1-26,48,44,41,-100,-100,-100,0,0,100,0.00,40.00,10,5,0,0.00
2013-1-27,44,43,42,-100,-100,-100,0,0,100,0.00,40.00,10,6,0,0.00
2013-1-28,44,43,41,-100,-100,-100,0,0,100,0.00,40.00,5,3,0,0.00
2013-1-29,48,44,43,-100,-100,-100,0,0,100,0.00,40.00,5,3,0,0.00
2013-1-31,52,50,48,-100,-100,-100,0,0,100,0.00,40.00,9,6,0,0.00
2013-2-1,53,48,44,-100,-100,-100,0,0,100,0.00,40.00,6,3,0,0.00
2013-2-2,46,43,41,-100,-100,-100,0,0,100,0.00,40.00,5,3,0,0.00
2013-2-3,50,45,40,-100,-100,-100,0,0,100,0.00,40.00,7,4,0,0.00
2013-2-4,54,48,46,-100,-100,-100,0,0,100,0.00,40.00,5,3,0,0.00
2013-2-5,53,48,46,-100,-100,-100,0,0,100,0.00,40.00,12,7,0,0.00
2013-2-6,52,45,45,-100,-100,-100,0,0,100,0.00,40.00,10,6,0,0.00
2013-2-7,52,44,43,-100,-100,-100,0,0,100,0.00,40.00,13,6,0,0.00
2013-2-8,48,44,40,-100,-100,-100,0,0,100,0.00,40.00,3,2,0,0.00
2013-2-9,49,45,42,-100,-100,-100,0,0,100,0.00,40.00,3,2,0,0.00
2013-2-10,51,44,38,-100,-100,-100,0,0,100,0.00,40.00,6,2,0,0.00
2013-2-11,49,46,42,-100,-100,-100,0,0,100,0.00,40.00,6,3,0,0.00
2013-2-12,52,49,46,-100,-100,-100,0,0,100,0.00,40.00,13,6,0,0.00
2013-2-13,51,49,47,-100,-100,-100,0,0,100,0.00,40.00,10,4,0,0.00
2013-2-14,51,48,45,-100,-100,-100,0,0,100,0.00,40.00,6,3,0,0.00
2013-2-15,56,48,42,-100,-100,-100,0,0,100,0.00,40.00,7,4,0,0.00
2013-2-16,56,48,41,-100,-100,-100,0,0,100,0.00,40.00,12,5,0,0.00
2013-2-17,49,44,42,-100,-100,-100,0,0,100,0.00,40.00,7,4,0,0.00
2013-2-18,49,44,41,-100,-100,-100,0,0,100,0.00,40.00,8,3,0,0.00
2013-2-19,53,45,40,-100,-100,-100,0,0,100,0.00,40.00,8,4,0,0.00
2013-2-20,47,42,37,-100,-100,-100,0,0,100,0.00,40.00,9,4,0,0.00
2013-2-21,46,44,41,-100,-100,-100,0,0,100,0.00,40.00,14,8,0,0.00
2013-2-22,47,44,41,-100,-100,-100,0,0,100,0.00,40.00,18,12,0,0.00
2013-2-23,54,46,41,-100,-100,-100,0,0,100,0.00,40.00,8,5,0,0.00
2013-2-24,49,46,43,-100,-100,-100,0,0,100,0.00,40.00,12,8,0,0.00
2013-2-25,54,46,41,-100,-100,-100,0,0,100,0.00,40.00,14,10,0,0.00
2013-2-26,50,45,40,-100,-100,-100,0,0,100,0.00,40.00,9,6,0,0.00
2013-2-27,51,46,42,-100,-100,-100,0,0,100,0.00,40.00,9,3,0,0.00
2013-2-28,54,49,44,-100,-100,-100,0,0,100,0.00,40.00,9,4,0,0.00
2013-3-1,60,55,52,-100,-100,-100,0,0,100,0.00,40.00,13,8,0,0.00
2013-3-2,58,52,42,-100,-100,-100,0,0,100,0.00,40.00,13,7,0,0.00
2013-3-3,54,44,37,-100,-100,-100,0,0,100,0.00,40.00,7,3,0,0.00
2013-3-4,56,43,35,-100,-100,-100,0,0,100,0.00,40.00,8,3,0,0.00
2013-3-5,52,41,41,-100,-100,-100,0,0,100,0.00,40.00,5,3,0,0.00
2013-3-6,46,44,42,-100,-100,-100,0,0,100,0.00,40.00,8,5,0,0.00
2013-3-7,55,48,43,-100,-100,-100,0,0,100,0.00,40.00,8,4,0,0.00
2013-3-8,54,46,39,-100,-100,-100,0,0,100,0.00,40.00,8,4,0,0.00
2013-3-9,58,45,35,-100,-100,-100,0,0,100,0.00,40.00,5,2,0,0.00
2013-3-10,50,45,40,-100,-100,-100,0,0,100,0.00,40.00,5,2,0,0.00
2013-3-11,53,48,44,-100,-100,-100,0,0,100,0.00,40.00,3,2,0,0.00
2013-3-12,57,53,49,-100,-100,-100,0,0,100,0.00,40.00,13,10,0,0.00
2013-3-13,54,53,52,-100,-100,-100,0,0,100,0.00,40.00,10,7,0,0.00
2013-3-14,56,52,50,-100,-100,-100,0,0,100,0.00,40.00,7,4,0,0.00
2013-3-15,61,54,50,-100,-100,-100,0,0,100,0.00,40.00,9,7,0,0.00
2013-3-16,52,49,42,-100,-100,-100,0,0,100,0.00,40.00,12,8,0,0.00
2013-3-17,52,45,40,-100,-100,-100,0,0,100,0.00,40.00,10,6,0,0.00
2013-3-18,55,46,42,-100,-100,-100,0,0,100,0.00,40.00,13,8,0,0.00
2013-3-19,54,45,40,-100,-100,-100,0,0,100,0.00,40.00,6,4,0,0.00
2013-3-20,53,48,42,-100,-100,-100,0,0,100,0.00,40.00,16,10,0,0.00
2013-3-21,49,42,37,-100,-100,-100,0,0,100,0.00,40.00,9,6,0,0.00
2013-3-22,50,42,36,-100,-100,-100,0,0,100,0.00,40.00,6,4,0,0.00
2013-3-23,52,42,36,-100,-100,-100,0,0,100,0.00,40.00,6,3,0,0.00
2013-3-24,56,44,33,-100,-100,-100,0,0,100,0.00,40.00,5,2,0,0.00
2013-3-25,62,50,37,-100,-100,-100,0,0,100,0.00,40.00,6,3,0,0.00
2013-3-26,62,54,48,-100,-100,-100,0,0,100,0.00,40.00,5,4,0,0.00
2013-3-27,58,52,48,-100,-100,-100,0,0,100,0.00,40.00,5,2,0,0.00
2013-3-28,65,54,45,-100,-100,-100,0,0,100,0.00,40.00,5,2,0,0.00
2013-3-29,65,54,47,-100,-100,-100,0,0,100,0.00,40.00,7,3,0,0.00
2013-3-30,63,54,45,-100,-100,-100,0,0,100,0.00,40.00,10,6,0,0.00
2013-3-31,68,58,47,-100,-100,-100,0,0,100,0.00,40.00,8,4,0,0.00
2013-4-1,65,55,50,-100,-100,-100,0,0,100,0.00,40.00,8,6,0,0.00
2013-4-2,59,52,51,-100,-100,-100,0,0,100,0.00,40.00,8,5,0,0.00
2013-4-3,64,55,47,-100,-100,-100,0,0,100,0.00,40.00,6,3,0,0.00
2013-4-4,58,54,51,-100,-100,-100,0,0,100,0.00,40.00,9,4,0,0.00
2013-4-5,59,54,50,-100,-100,-100,0,0,100,0.00,40.00,10,8,0,0.00
2013-4-6,54,50,48,-100,-100,-100,0,0,100,0.00,40.00,10,7,0,0.00
2013-4-7,49,45,42,-100,-100,-100,0,0,100,0.00,40.00,9,4,0,0.00
2013-4-8,60,51,44,-100,-100,-100,0,0,100,0.00,40.00,6,4,0,0.00
2013-4-9,56,51,45,-100,-100,-100,0,0,100,0.00,40.00,7,4,0,0.00
2013-4-10,62,55,50,-100,-100,-100,0,0,100,0.00,40.00,13,8,0,0.00
2013-4-11,57,50,46,-100,-100,-100,0,0,100,0.00,40.00,8,5,0,0.00
2013-4-12,48,46,43,-100,-100,-100,0,0,100,0.00,40.00,13,6,0,0.00
2013-4-13,52,46,40,-100,-100,-100,0,0,100,0.00,40.00,12,8,0,0.00
2013-4-15,57,52,45,-100,-100,-100,0,0,100,0.00,40.00,10,6,0,0.00
2013-4-16,59,48,39,-100,-100,-100,0,0,100,0.00,40.00,9,3,0,0.00
2013-4-17,62,51,41,-100,-100,-100,0,0,100,0.00,40.00,8,4,0,0.00
2013-4-18,54,50,46,-100,-100,-100,0,0,100,0.00,40.00,9,6,0,0.00
2013-4-19,57,53,50,-100,-100,-100,0,0,100,0.00,40.00,10,6,0,0.00
2013-4-20,58,52,49,-100,-100,-100,0,0,100,0.00,40.00,8,6,0,0.00
2013-4-21,57,50,47,-100,-100,-100,0,0,100,0.00,40.00,8,6,0,0.00
2013-4-22,61,51,41,-100,-100,-100,0,0,100,0.00,40.00,12,6,0,0.00
2013-4-23,64,53,40,-100,-100,-100,0,0,100,0.00,40.00,12,4,0,0.00
2013-4-24,70,58,44,-100,-100,-100,0,0,100,0.00,40.00,8,4,0,0.00
2013-4-25,75,62,46,-100,-100,-100,0,0,100,0.00,40.00,5,3,0,0.00
2013-4-26,71,59,49,-100,-100,-100,0,0,100,0.00,40.00,6,3,0,0.00
2013-4-27,58,56,54,-100,-100,-100,0,0,100,0.00,40.00,13,8,0,0.00
2013-4-28,62,54,51,-100,-100,-100,0,0,100,0.00,40.00,10,6,0,0.00
2013-4-29,59,51,46,-100,-100,-100,0,0,100,0.00,40.00,9,6,0,0.00
2013-4-30,60,42,44,-100,-100,-100,0,0,100,0.00,40.00,6,4,0,0.00
2013-5-1,63,52,39,-100,-100,-100,0,0,100,0.00,40.00,10,4,0,0.00
2013-5-2,66,58,49,-100,-100,-100,0,0,100,0.00,40.00,12,6,0,0.00
2013-5-3,70,60,51,-100,-100,-100,0,0,100,0.00,40.00,10,5,0,0.00
2013-5-4,77,66,54,-100,-100,-100,0,0,100,0.00,40.00,10,6,0,0.00
2013-5-5,82,69,56,-100,-100,-100,0,0,100,0.00,40.00,10,5,0,0.00
2013-5-6,85,68,54,-100,-100,-100,0,0,100,0.00,40.00,7,3,0,0.00
2013-5-7,76,63,54,-100,-100,-100,0,0,100,0.00,40.00,8,5,0,0.00
2013-5-8,70,59,54,-100,-100,-100,0,0,100,0.00,40.00,6,4,0,0.00
2013-5-9,73,60,52,-100,-100,-100,0,0,100,0.00,40.00,6,4,0,0.00
2013-5-10,80,60,52,-100,-100,-100,0,0,100,0.00,40.00,7,5,0,0.00
2013-5-11,84,64,57,-100,-100,-100,0,0,100,0.00,40.00,6,4,0,0.00
2013-5-12,76,66,60,-100,-100,-100,0,0,100,0.00,40.00,8,6,0,0.00
2013-5-13,69,56,52,-100,-100,-100,0,0,100,0.00,40.00,45,20,0,0.00
2013-5-14,69,58,49,-100,-100,-100,0,0,100,0.00,40.00,45,12,0,0.00
2013-5-15,68,56,49,-100,-100,-100,0,0,100,0.00,40.00,5,3,0,0.00
2013-5-16,72,60,55,-100,-100,-100,0,0,100,0.00,40.00,8,4,0,0.00
2013-5-17,67,60,55,-100,-100,-100,0,0,100,0.00,40.00,9,7,0,0.00
2013-5-18,67,59,54,-100,-100,-100,0,0,100,0.00,40.00,7,5,0,0.00
2013-5-19,68,60,56,-100,-100,-100,0,0,100,0.00,40.00,7,4,0,0.00
2013-5-20,73,59,49,-100,-100,-100,0,0,100,0.00,40.00,8,4,0,0.00
2013-5-21,61,50,48,-100,-100,-100,0,0,100,0.00,40.00,8,6,0,0.00
2013-5-22,58,50,46,-100,-100,-100,0,0,100,0.00,40.00,7,5,0,0.00
2013-5-23,59,52,46,-100,-100,-100,0,0,100,0.00,40.00,9,4,0,0.00
2013-5-24,67,56,49,-100,-100,-100,0,0,100,0.00,40.00,7,4,0,0.00
2013-5-25,67,59,52,-100,-100,-100,0,0,100,0.00,40.00,6,5,0,0.00
2013-5-26,68,58,51,-100,-100,-100,0,0,100,0.00,40.00,7,4,0,0.00
2013-5-27,62,57,53,-100,-100,-100,0,0,100,0.00,40.00,5,3,0,0.00
2013-5-28,65,58,53,-100,-100,-100,0,0,100,0.00,40.00,8,6,0,0.00
2013-5-29,65,54,50,-100,-100,-100,0,0,100,0.00,40.00,12,4,0,0.00
2013-5-30,64,57,51,-100,-100,-100,0,0,100,0.00,40.00,9,8,0,0.00
2013-5-31,71,59,53,-100,-100,-100,0,0,100,0.00,40.00,7,4,0,0.00
2013-6-2,70,68,62,-100,-100,-100,0,0,100,0.00,40.00,5,4,0,0.00
2013-6-3,75,64,54,-100,-100,-100,0,0,100,0.00,40.00,7,4,0,0.00
2013-6-4,77,64,56,-100,-100,-100,0,0,100,0.00,40.00,8,4,0,0.00
2013-6-5,76,67,58,-100,-100,-100,0,0,100,0.00,40.00,8,5,0,0.00
2013-6-6,81,67,57,-100,-100,-100,0,0,100,0.00,40.00,6,4,0,0.00
2013-6-10,72,66,53,-100,-100,-100,0,0,100,0.00,40.00,6,5,0,0.00
2013-6-11,70,61,54,-100,-100,-100,0,0,100,0.00,40.00,10,8,0,0.00
2013-6-12,71,62,55,-100,-100,-100,0,0,100,0.00,40.00,9,7,0,0.00
2013-6-13,70,61,55,-100,-100,-100,0,0,100,0.00,40.00,6,4,0,0.00
2013-6-14,72,62,57,-100,-100,-100,0,0,100,0.00,40.00,8,6,0,0.00
2013-6-15,75,66,54,-100,-100,-100,0,0,100,0.00,40.00,9,6,0,0.00
2013-6-16,77,68,58,-100,-100,-100,0,0,100,0.00,40.00,8,4,0,0.00
2013-6-17,80,69,59,-100,-100,-100,0,0,100,0.00,40.00,12,5,0,0.00
2013-6-18,78,62,58,-100,-100,-100,0,0,100,0.00,40.00,8,5,0,0.00
2013-6-19,69,62,57,-100,-100,-100,0,0,100,0.00,40.00,7,5,0,0.00
2013-6-20,64,60,57,-100,-100,-100,0,0,100,0.00,40.00,9,7,0,0.00
2013-6-22,81,73,60,-100,-100,-100,0,0,100,0.00,40.00,7,5,0,0.00
2013-6-23,73,67,61,-100,-100,-100,0,0,100,0.00,40.00,5,3,0,0.00
2013-6-24,73,65,58,-100,-100,-100,0,0,100,0.00,40.00,9,6,0,0.00
2013-6-25,76,64,58,-100,-100,-100,0,0,100,0.00,40.00,7,4,0,0.00
2013-6-26,73,69,60,-100,-100,-100,0,0,100,0.00,40.00,7,4,0,0.00
2013-6-27,72,67,60,-100,-100,-100,0,0,100,0.00,40.00,3,2,0,0.00
2013-6-28,90,76,63,-100,-100,-100,0,0,100,0.00,40.00,7,4,0,0.00
2013-6-29,86,75,64,-100,-100,-100,0,0,100,0.00,40.00,7,4,0,0.00
2013-6-30,92,78,63,-100,-100,-100,0,0,100,0.00,40.00,7,5,0,0.00
2013-7-1,89,75,69,-100,-100,-100,0,0,100,0.00,40.00,6,3,0,0.00
2013-7-2,81,76,66,-100,-100,-100,0,0,100,0.00,40.00,9,5,0,0.00
2013-7-3,78,70,63,-100,-100,-100,0,0,100,0.00,40.00,8,6,0,0.00
2013-7-4,76,67,60,-100,-100,-100,0,0,100,0.00,40.00,6,4,0,0.00
2013-7-5,79,68,59,-100,-100,-100,0,0,100,0.00,40.00,7,4,0,0.00
2013-7-6,79,68,57,-100,-100,-100,0,0,100,0.00,40.00,7,4,0,0.00
2013-7-7,79,68,60,-100,-100,-100,0,0,100,0.00,40.00,6,4,0,0.00
2013-7-8,80,64,58,-100,-100,-100,0,0,100,0.00,40.00,6,5,0,0.00
2013-7-9,82,73,62,-100,-100,-100,0,0,100,0.00,40.00,12,6,0,0.00
2013-7-10,76,64,60,-100,-100,-100,0,0,100,0.00,40.00,6,4,0,0.00
2013-7-11,73,64,58,-100,-100,-100,0,0,100,0.00,40.00,9,5,0,0.00
2013-7-12,70,62,57,-100,-100,-100,0,0,100,0.00,40.00,6,3,0,0.00
2013-7-13,76,67,53,-100,-100,-100,0,0,100,0.00,40.00,10,5,0,0.00
2013-7-14,84,70,57,-100,-100,-100,0,0,100,0.00,40.00,8,4,0,0.00
2013-7-15,79,70,60,-100,-100,-100,0,0,100,0.00,40.00,13,6,0,0.00
2013-7-16,82,68,65,-100,-100,-100,0,0,100,0.00,40.00,10,6,0,0.00
2013-7-17,72,67,63,-100,-100,-100,0,0,100,0.00,40.00,8,5,0,0.00
2013-7-18,80,70,60,-100,-100,-100,0,0,100,0.00,40.00,7,4,0,0.00
2013-7-19,80,67,59,-100,-100,-100,0,0,100,0.00,40.00,7,4,0,0.00
2013-7-20,76,66,58,-100,-100,-100,0,0,100,0.00,40.00,6,4,0,0.00
2013-7-21,80,66,57,-100,-100,-100,0,0,100,0.00,40.00,5,3,0,0.00
2013-7-22,81,67,58,-100,-100,-100,0,0,100,0.00,40.00,6,4,0,0.00
2013-7-23,82,69,56,-100,-100,-100,0,0,100,0.00,40.00,8,6,0,0.00
2013-7-24,85,72,59,-100,-100,-100,0,0,100,0.00,40.00,7,5,0,0.00
2013-7-25,85,71,58,-100,-100,-100,0,0,100,0.00,40.00,8,5,0,0.00
2013-7-26,85,72,59,-100,-100,-100,0,0,100,0.00,40.00,8,5,0,0.00
2013-7-27,80,68,58,-100,-100,-100,0,0,100,0.00,40.00,7,4,0,0.00
2013-7-28,72,63,56,-100,-100,-100,0,0,100,0.00,40.00,8,6,0,0.00
2013-7-29,78,66,58,-100,-100,-100,0,0,100,0.00,40.00,6,3,0,0.00
2013-7-30,81,69,58,-100,-100,-100,0,0,100,0.00,40.00,6,4,0,0.00
2013-7-31,73,65,58,-100,-100,-100,0,0,100,0.00,40.00,5,3,0,0.00
2013-8-1,70,64,58,-100,-100,-100,0,0,100,0.00,40.00,9,6,0,0.00
2013-8-2,64,60,60,-100,-100,-100,0,0,100,0.00,40.00,7,4,0,0.00
2013-8-3,78,67,60,-100,-100,-100,0,0,100,0.00,40.00,6,4,0,0.00
2013-8-4,80,70,58,-100,-100,-100,0,0,100,0.00,40.00,9,6,0,0.00
2013-8-5,85,73,61,-100,-100,-100,0,0,100,0.00,40.00,7,4,0,0.00
2013-8-6,87,72,58,-100,-100,-100,0,0,100,0.00,40.00,8,4,0,0.00
2013-8-7,86,71,59,-100,-100,-100,0,0,100,0.00,40.00,7,3,0,0.00
2013-8-8,83,70,60,-100,-100,-100,0,0,100,0.00,40.00,7,4,0,0.00
2013-8-9,84,72,60,-100,-100,-100,0,0,100,0.00,40.00,6,4,0,0.00
2013-8-10,71,64,61,-100,-100,-100,0,0,100,0.00,40.00,6,4,0,0.00
2013-8-11,67,63,60,-100,-100,-100,0,0,100,0.00,40.00,6,5,0,0.00
2013-8-12,66,64,62,-100,-100,-100,0,0,100,0.00,40.00,3,2,0,0.00
2013-8-14,81,46,66,-100,-100,-100,0,0,100,0.00,40.00,6,5,0,0.00
2013-8-15,71,59,65,-100,-100,-100,0,0,100,0.00,40.00,5,2,0,0.00
2013-8-16,86,78,67,-100,-100,-100,0,0,100,0.00,40.00,6,4,0,0.00
2013-8-17,79,69,66,-100,-100,-100,0,0,100,0.00,40.00,7,5,0,0.00
2013-8-18,81,73,65,-100,-100,-100,0,0,100,0.00,40.00,7,5,0,0.00
2013-8-19,80,60,65,-100,-100,-100,0,0,100,0.00,40.00,8,4,0,0.00
2013-8-20,76,70,62,-100,-100,-100,0,0,100,0.00,40.00,10,7,0,0.00
2013-8-25,74,68,61,-100,-100,-100,0,0,100,0.00,40.00,5,3,0,0.00
2013-8-26,74,67,64,-100,-100,-100,0,0,100,0.00,40.00,7,4,0,0.00
2013-8-27,78,69,64,-100,-100,-100,0,0,100,0.00,40.00,3,2,0,0.00
2013-8-28,80,76,71,-100,-100,-100,0,0,100,0.00,40.00,5,4,0,0.00
2013-8-29,76,68,66,-100,-100,-100,0,0,100,0.00,40.00,6,3,0,0.00
2013-8-30,81,71,64,-100,-100,-100,0,0,100,0.00,40.00,7,6,0,0.00
2013-8-31,77,67,64,-100,-100,-100,0,0,100,0.00,40.00,8,6,0,0.00
2013-9-1,83,69,60,-100,-100,-100,0,0,100,0.00,40.00,5,3,0,0.00
2013-9-2,85,74,63,-100,-100,-100,0,0,100,0.00,40.00,6,3,0,0.00
2013-9-3,69,65,63,-100,-100,-100,0,0,100,0.00,40.00,5,3,0,0.00
2013-9-4,71,67,62,-100,-100,-100,0,0,100,0.00,40.00,6,3,0,0.00
2013-9-5,67,64,62,-100,-100,-100,0,0,100,0.00,40.00,7,4,0,0.00
2013-9-6,75,67,62,-100,-100,-100,0,0,100,0.00,40.00,6,4,0,0.00
2013-9-7,73,61,63,-100,-100,-100,0,0,100,0.00,40.00,5,4,0,0.00
2013-9-8,77,68,60,-100,-100,-100,0,0,100,0.00,40.00,6,4,0,0.00
2013-9-9,73,68,60,-100,-100,-100,0,0,100,0.00,40.00,6,4,0,0.00
2013-9-10,72,67,59,-100,-100,-100,0,0,100,0.00,40.00,9,5,0,0.00
2013-9-11,85,72,62,-100,-100,-100,0,0,100,0.00,40.00,7,4,0,0.00
2013-9-12,77,68,62,-100,-100,-100,0,0,100,0.00,40.00,5,4,0,0.00
2013-9-13,66,64,61,-100,-100,-100,0,0,100,0.00,40.00,5,3,0,0.00
2013-9-14,70,60,61,-100,-100,-100,0,0,100,0.00,40.00,5,3,0,0.00
2013-9-15,67,66,62,-100,-100,-100,0,0,100,0.00,40.00,5,4,0,0.00
2013-9-16,72,65,63,-100,-100,-100,0,0,100,0.00,40.00,8,6,0,0.00
2013-9-17,65,61,59,-100,-100,-100,0,0,100,0.00,40.00,3,2,0,0.00
2013-9-18,61,60,59,-100,-100,-100,0,0,100,0.00,40.00,3,2,0,0.00
2013-9-19,79,67,50,-100,-100,-100,0,0,100,0.00,40.00,5,2,0,0.00
2013-9-20,78,67,59,-100,-100,-100,0,0,100,0.00,40.00,6,4,0,0.00
2013-9-21,72,60,57,-100,-100,-100,0,0,100,0.00,40.00,7,4,0,0.00
2013-9-22,61,59,57,-100,-100,-100,0,0,100,0.00,40.00,9,8,0,0.00
2013-9-23,62,58,54,-100,-100,-100,0,0,100,0.00,40.00,9,7,0,0.00
2013-9-24,67,58,53,-100,-100,-100,0,0,100,0.00,40.00,7,4,0,0.00
2013-9-25,63,56,52,-100,-100,-100,0,0,100,0.00,40.00,8,5,0,0.00
2013-9-26,65,54,47,-100,-100,-100,0,0,100,0.00,40.00,5,2,0,0.00
2013-9-27,59,56,53,-100,-100,-100,0,0,100,0.00,40.00,14,7,0,0.00
2013-9-28,59,52,54,-100,-100,-100,0,0,100,0.00,40.00,9,6,0,0.00
2013-9-29,57,55,54,-100,-100,-100,0,0,100,0.00,40.00,12,9,0,0.00
2013-9-30,58,54,51,-100,-100,-100,0,0,100,0.00,40.00,13,10,0,0.00
2013-11-10,52,50,48,-100,-100,-100,0,0,100,0.00,40.00,6,4,0,0.00
2013-11-11,55,50,46,-100,-100,-100,0,0,100,0.00,40.00,3,2,0,0.00
2013-11-12,57,56,55,-100,-100,-100,0,0,100,0.00,40.00,7,7,0,0.00
2013-11-13,57,57,57,-100,-100,-100,0,0,100,0.00,40.00,3,3,0,0.00
2013-11-15,48,48,48,-100,-100,-100,0,0,100,0.00,40.00,13,13,0,0.00
2013-11-16,45,34,41,-100,-100,-100,0,0,100,0.00,40.00,7,3,0,0.00